Time;durP1;ratioP1;P1;durP2;ratioP2;P2;SDS_P1;SDS_P2;PMS_P1;PMS_P2;Temp;Humidity;BMP_temperature;BMP_pressure;BME280_temperature;BME280_humidity;BME280_pressure;Samples;Min_cycle;Max_cycle;Signal;HPM_P1;HPM_P2
2023/08/25 10:49:13;;;;;;;4.53;3.20;;;21.50;99.90;;;;;;5568965;23;20579;-66
2023/08/25 10:51:40;;;;;;;2.50;2.30;;;21.50;99.90;;;;;;4917775;29;20960;-66
2023/08/25 10:54:17;;;;;;;3.57;2.50;;;21.60;99.90;;;;;;4914206;29;20490;-66
2023/08/25 10:56:44;;;;;;;3.00;2.70;;;21.60;99.90;;;;;;4895966;29;21032;-66
2023/08/25 10:59:11;;;;;;;4.03;2.53;;;21.60;99.90;;;;;;4894111;29;20568;-68
2023/08/25 11:01:56;;;;;;;2.60;2.40;;;21.60;99.90;;;;;;4898882;29;20475;-66
2023/08/25 11:04:25;;;;;;;2.50;2.30;;;21.70;99.90;;;;;;4887484;29;20495;-67
2023/08/25 11:06:52;;;;;;;3.03;2.50;;;21.70;99.90;;;;;;4892540;29;21033;-67
2023/08/25 11:09:31;;;;;;;3.20;2.87;;;21.80;99.90;;;;;;4888880;29;20499;-67
2023/08/25 11:12:01;;;;;;;4.50;3.23;;;21.90;99.90;;;;;;4892168;29;20530;-67
2023/08/25 11:14:29;;;;;;;2.97;2.63;;;21.90;99.90;;;;;;4889549;29;20475;-67
2023/08/25 11:16:56;;;;;;;2.67;2.47;;;22.00;99.90;;;;;;4906237;29;20478;-67
2023/08/25 11:19:25;;;;;;;2.90;2.60;;;22.00;99.90;;;;;;4893610;29;20489;-67
2023/08/25 11:22:00;;;;;;;2.70;2.50;;;22.00;99.90;;;;;;4891736;29;20487;-67
2023/08/25 11:24:27;;;;;;;4.20;3.20;;;21.90;99.90;;;;;;4893599;29;20496;-66
2023/08/25 11:26:54;;;;;;;3.80;3.30;;;22.00;99.90;;;;;;4895313;29;20835;-67
2023/08/25 11:29:21;;;;;;;3.57;2.53;;;22.00;99.90;;;;;;4877483;29;20494;-67
2023/08/25 11:31:47;;;;;;;3.13;2.83;;;22.00;99.90;;;;;;4891233;29;20467;-67
2023/08/25 11:34:15;;;;;;;3.80;2.63;;;22.10;99.90;;;;;;4904514;23;20562;-66
2023/08/25 11:36:43;;;;;;;4.00;3.70;;;22.20;99.90;;;;;;4883140;29;20621;-66
2023/08/25 11:39:17;;;;;;;4.07;2.80;;;22.30;99.90;;;;;;4869524;29;20867;-65
2023/08/25 11:41:44;;;;;;;3.33;2.97;;;22.30;99.90;;;;;;4872082;29;20474;-65
2023/08/25 11:44:11;;;;;;;8.13;3.03;;;22.40;99.90;;;;;;4875509;29;20522;-66
2023/08/25 11:46:38;;;;;;;3.40;3.10;;;22.40;99.90;;;;;;4870070;29;20470;-66
2023/08/25 11:49:06;;;;;;;3.07;2.80;;;22.50;99.90;;;;;;4868159;29;22062;-67
2023/08/25 11:51:36;;;;;;;4.00;2.80;;;22.50;99.90;;;;;;4876043;29;20449;-67
2023/08/25 11:54:05;;;;;;;3.17;2.80;;;22.50;99.90;;;;;;4874737;29;20475;-67
2023/08/25 11:56:31;;;;;;;3.30;3.00;;;22.50;99.90;;;;;;4869676;29;20467;-67
2023/08/25 11:58:58;;;;;;;3.40;3.10;;;22.60;99.90;;;;;;4875277;29;21012;-67
2023/08/25 12:01:32;;;;;;;3.60;3.13;;;22.90;99.90;;;;;;4875792;29;20510;-66
2023/08/25 12:04:00;;;;;;;3.07;2.80;;;23.10;99.90;;;;;;4874843;29;20498;-65
2023/08/25 12:06:26;;;;;;;5.43;3.10;;;23.20;99.90;;;;;;4876285;29;20509;-66
2023/08/25 12:08:53;;;;;;;3.87;3.47;;;23.30;99.90;;;;;;4876862;29;20874;-66
2023/08/25 12:11:21;;;;;;;3.47;3.17;;;23.40;99.90;;;;;;4874714;29;20467;-67
2023/08/25 12:13:49;;;;;;;3.93;3.53;;;23.40;99.90;;;;;;4868560;29;20482;-67
2023/08/25 12:16:19;;;;;;;3.50;3.20;;;23.50;99.90;;;;;;4871891;29;20535;-67
2023/08/25 12:18:51;;;;;;;3.90;3.50;;;23.50;99.90;;;;;;4872489;29;20941;-67
2023/08/25 12:21:18;;;;;;;3.33;3.03;;;23.50;99.90;;;;;;4861612;29;20467;-67
2023/08/25 12:23:45;;;;;;;3.60;3.07;;;23.40;99.90;;;;;;4869262;29;20970;-67
2023/08/25 12:26:12;;;;;;;4.27;3.77;;;23.40;99.90;;;;;;4870162;29;20478;-67
2023/08/25 12:28:42;;;;;;;3.50;3.20;;;23.40;99.90;;;;;;4875038;29;20496;-67
2023/08/25 12:31:09;;;;;;;3.53;3.23;;;23.40;99.90;;;;;;4867389;29;21046;-67
2023/08/25 12:33:36;;;;;;;3.30;3.00;;;23.30;99.90;;;;;;4869002;29;20873;-67
2023/08/25 12:36:02;;;;;;;3.70;3.10;;;23.30;99.90;;;;;;4868464;29;20471;-67
2023/08/25 12:38:32;;;;;;;5.93;3.10;;;23.40;99.90;;;;;;4877536;29;20490;-67
2023/08/25 12:40:59;;;;;;;5.17;3.30;;;23.40;99.90;;;;;;4866909;29;20529;-67
2023/08/25 12:43:27;;;;;;;3.80;3.50;;;23.40;99.90;;;;;;4863135;29;20479;-67
2023/08/25 12:45:56;;;;;;;3.77;3.30;;;23.50;99.90;;;;;;4869071;29;20538;-67
2023/08/25 12:48:22;;;;;;;3.80;3.40;;;23.50;99.90;;;;;;4878302;29;20502;-67
2023/08/25 12:50:49;;;;;;;3.20;2.90;;;23.60;99.90;;;;;;4866678;29;20469;-66
2023/08/25 12:53:16;;;;;;;3.60;3.30;;;23.70;99.90;;;;;;4868317;29;20464;-66
2023/08/25 12:55:43;;;;;;;4.83;3.07;;;23.80;99.90;;;;;;4869596;29;20467;-66
2023/08/25 12:58:10;;;;;;;3.60;3.17;;;23.90;99.90;;;;;;4878304;29;20471;-65
2023/08/25 13:00:37;;;;;;;3.60;3.03;;;23.90;99.90;;;;;;4866533;29;20511;-66
2023/08/25 13:03:05;;;;;;;4.00;3.00;;;24.00;99.90;;;;;;4868051;29;20472;-66
2023/08/25 13:05:32;;;;;;;4.30;3.37;;;24.10;99.90;;;;;;4872044;29;20498;-66
2023/08/25 13:07:59;;;;;;;3.53;3.23;;;24.20;99.90;;;;;;4880541;29;20471;-66
2023/08/25 13:10:26;;;;;;;3.43;3.13;;;24.20;99.90;;;;;;4867550;29;20491;-66
2023/08/25 13:12:52;;;;;;;3.80;3.40;;;24.20;99.90;;;;;;4872757;29;20464;-66
2023/08/25 13:15:19;;;;;;;3.37;3.07;;;24.30;99.90;;;;;;4868369;29;20471;-66
2023/08/25 13:17:48;;;;;;;4.03;2.93;;;24.30;99.90;;;;;;4872168;29;20490;-65
2023/08/25 13:20:16;;;;;;;3.40;3.10;;;24.30;99.90;;;;;;4897762;29;20554;-66
2023/08/25 13:22:43;;;;;;;3.40;2.90;;;24.20;99.90;;;;;;4898346;29;20590;-66
2023/08/25 13:25:10;;;;;;;4.17;3.03;;;24.20;99.90;;;;;;4897893;29;20498;-66
2023/08/25 13:27:37;;;;;;;3.97;3.40;;;24.20;99.90;;;;;;4898574;29;20463;-67
2023/08/25 13:30:06;;;;;;;3.43;3.13;;;24.30;99.90;;;;;;4898023;29;20485;-66
2023/08/25 13:32:33;;;;;;;2.70;2.50;;;24.30;99.90;;;;;;4896215;29;21171;-66
2023/08/25 13:34:59;;;;;;;3.43;3.00;;;24.40;99.90;;;;;;4893106;29;20470;-66
2023/08/25 13:37:28;;;;;;;4.00;3.60;;;24.50;99.90;;;;;;4889787;29;20472;-65
2023/08/25 13:39:54;;;;;;;3.53;3.10;;;24.50;99.90;;;;;;4893150;29;20494;-66
2023/08/25 13:42:21;;;;;;;3.83;3.53;;;24.60;99.90;;;;;;4890175;29;20962;-66
2023/08/25 13:44:48;;;;;;;3.17;2.97;;;24.70;99.90;;;;;;4898176;29;20505;-67
2023/08/25 13:47:14;;;;;;;3.20;2.90;;;24.80;99.90;;;;;;4887947;29;20456;-66
2023/08/25 13:49:41;;;;;;;2.80;2.60;;;24.90;99.90;;;;;;4878972;29;20491;-66
2023/08/25 13:52:08;;;;;;;3.67;3.37;;;24.90;99.90;;;;;;4871065;29;20471;-66
2023/08/25 13:54:36;;;;;;;4.20;3.80;;;24.80;99.90;;;;;;4874295;29;20468;-66
2023/08/25 13:57:03;;;;;;;3.67;3.27;;;24.80;99.90;;;;;;4876292;29;20463;-66
2023/08/25 13:59:30;;;;;;;2.90;2.70;;;24.70;99.90;;;;;;4871184;29;20483;-66
2023/08/25 14:01:57;;;;;;;3.67;3.37;;;24.80;99.90;;;;;;4893724;29;20765;-66
2023/08/25 14:04:23;;;;;;;3.60;3.30;;;24.90;99.90;;;;;;4897399;29;21294;-66
2023/08/25 14:06:50;;;;;;;3.50;3.20;;;25.10;99.90;;;;;;4897635;29;20478;-66
2023/08/25 14:09:17;;;;;;;3.50;3.20;;;25.20;99.90;;;;;;4896991;29;20497;-66
2023/08/25 14:11:45;;;;;;;3.00;2.70;;;25.20;99.90;;;;;;4897269;29;20471;-65
2023/08/25 14:14:12;;;;;;;3.73;3.43;;;25.20;99.90;;;;;;4896904;29;20496;-66
2023/08/25 14:16:39;;;;;;;4.20;3.30;;;25.20;99.90;;;;;;4897609;29;20515;-66
2023/08/25 14:19:06;;;;;;;3.63;3.20;;;25.20;99.90;;;;;;4896539;29;20864;-66
2023/08/25 14:21:33;;;;;;;3.10;2.80;;;25.30;99.90;;;;;;4897162;29;20473;-66
2023/08/25 14:24:00;;;;;;;3.93;3.10;;;25.20;99.90;;;;;;4896949;29;20542;-65
2023/08/25 14:26:27;;;;;;;3.50;3.20;;;25.20;99.90;;;;;;4896389;29;20489;-66
2023/08/25 14:28:55;;;;;;;3.40;3.10;;;25.20;99.90;;;;;;4896844;29;20490;-66
2023/08/25 14:31:22;;;;;;;3.40;3.10;;;25.20;99.90;;;;;;4896566;29;20885;-66
2023/08/25 14:33:48;;;;;;;3.80;3.40;;;25.20;99.90;;;;;;4888427;29;20468;-67
2023/08/25 14:36:15;;;;;;;3.53;3.23;;;25.20;99.90;;;;;;4874052;29;20464;-65
2023/08/25 14:38:42;;;;;;;4.67;3.63;;;25.20;99.90;;;;;;4871452;29;20484;-66
2023/08/25 14:41:09;;;;;;;3.93;3.30;;;25.20;99.90;;;;;;4869291;29;20468;-65
2023/08/25 14:43:35;;;;;;;3.23;2.93;;;25.30;99.90;;;;;;4878074;29;20479;-65
2023/08/25 14:46:03;;;;;;;4.23;3.03;;;25.30;99.90;;;;;;4877817;29;20494;-65
2023/08/25 14:48:30;;;;;;;3.13;2.90;;;25.20;99.90;;;;;;4871272;29;20515;-66
2023/08/25 14:51:02;;;;;;;3.80;3.50;;;25.20;99.90;;;;;;4869723;29;20479;-64
2023/08/25 14:53:32;;;;;;;4.67;3.03;;;25.20;99.90;;;;;;4874323;29;20471;-66
2023/08/25 14:55:59;;;;;;;3.63;3.33;;;25.30;99.90;;;;;;4863375;29;20479;-65
2023/08/25 14:58:26;;;;;;;3.40;3.10;;;25.30;99.90;;;;;;4869194;29;20521;-66
2023/08/25 15:00:54;;;;;;;5.23;3.03;;;25.30;99.90;;;;;;4873958;29;20468;-66
2023/08/25 15:03:22;;;;;;;3.77;3.47;;;25.30;99.90;;;;;;4865308;29;20877;-65
2023/08/25 15:05:54;;;;;;;3.50;3.20;;;25.40;99.90;;;;;;4867595;29;20496;-65
2023/08/25 15:08:21;;;;;;;3.30;3.00;;;25.40;99.90;;;;;;4872206;29;21800;-66
2023/08/25 15:10:48;;;;;;;3.90;3.60;;;25.40;99.90;;;;;;4868770;29;20478;-66
2023/08/25 15:13:14;;;;;;;6.00;3.30;;;25.50;99.90;;;;;;4871356;29;20975;-65
2023/08/25 15:15:41;;;;;;;3.80;3.50;;;25.50;99.90;;;;;;4870781;29;20460;-67
2023/08/25 15:18:08;;;;;;;3.90;3.60;;;25.60;99.90;;;;;;4871170;29;20476;-66
2023/08/25 15:20:37;;;;;;;3.20;2.90;;;25.70;99.90;;;;;;4874534;29;20550;-65
2023/08/25 15:23:05;;;;;;;3.90;3.50;;;25.80;99.90;;;;;;4876664;29;20482;-66
2023/08/25 15:25:33;;;;;;;4.30;3.90;;;25.90;99.90;;;;;;4865648;29;20582;-66
2023/08/25 15:28:00;;;;;;;3.80;3.50;;;26.00;99.90;;;;;;4871112;29;20468;-65
2023/08/25 15:30:27;;;;;;;3.63;3.33;;;26.20;99.90;;;;;;4871386;29;20533;-66
2023/08/25 15:32:54;;;;;;;4.27;3.30;;;26.20;99.90;;;;;;4870052;29;20479;-65
2023/08/25 15:35:25;;;;;;;4.00;3.70;;;26.30;99.90;;;;;;4868709;29;20469;-65
2023/08/25 15:37:54;;;;;;;4.97;3.90;;;26.30;99.90;;;;;;4876997;29;20833;-65
2023/08/25 15:40:22;;;;;;;3.80;3.50;;;26.20;99.90;;;;;;4875733;29;20480;-66
2023/08/25 15:42:50;;;;;;;3.77;3.47;;;26.10;99.90;;;;;;4876748;29;20492;-66
2023/08/25 15:45:17;;;;;;;7.70;4.30;;;25.90;99.90;;;;;;4867776;29;20489;-66
2023/08/25 15:47:45;;;;;;;4.20;3.80;;;25.90;99.90;;;;;;4866434;29;20528;-64
2023/08/25 15:50:12;;;;;;;4.07;3.77;;;25.80;99.90;;;;;;4878816;29;20495;-66
2023/08/25 15:52:39;;;;;;;3.93;3.63;;;25.80;99.90;;;;;;4865320;29;20469;-65
2023/08/25 15:55:09;;;;;;;4.10;3.43;;;25.80;99.90;;;;;;4865665;29;21027;-66
2023/08/25 15:57:36;;;;;;;4.10;3.60;;;26.00;99.90;;;;;;4858290;29;20502;-66
2023/08/25 16:00:04;;;;;;;3.80;3.50;;;26.10;99.90;;;;;;4866120;29;20485;-65
2023/08/25 16:02:32;;;;;;;4.10;3.60;;;26.30;99.90;;;;;;4868635;29;20506;-65
2023/08/25 16:04:58;;;;;;;4.03;3.63;;;26.30;99.90;;;;;;4869470;29;20459;-65
2023/08/25 16:07:25;;;;;;;3.77;3.47;;;26.40;99.90;;;;;;4868920;29;20949;-65
2023/08/25 16:09:52;;;;;;;4.17;3.77;;;26.40;99.90;;;;;;4859409;29;20498;-66
2023/08/25 16:12:20;;;;;;;4.77;4.37;;;26.40;99.90;;;;;;4867678;29;20911;-66
2023/08/25 16:14:47;;;;;;;4.10;3.80;;;26.50;99.90;;;;;;4870236;29;20571;-66
2023/08/25 16:17:13;;;;;;;4.03;3.70;;;26.50;99.90;;;;;;4869267;29;20494;-65
2023/08/25 16:19:40;;;;;;;3.70;3.27;;;26.50;99.90;;;;;;4868348;29;20484;-66
2023/08/25 16:22:07;;;;;;;4.53;4.07;;;26.50;99.90;;;;;;4859372;29;20472;-66
2023/08/25 16:24:35;;;;;;;5.10;3.67;;;26.50;99.90;;;;;;4870013;29;20464;-65
2023/08/25 16:27:02;;;;;;;3.97;3.67;;;26.50;99.90;;;;;;4870107;29;20528;-65
2023/08/25 16:29:30;;;;;;;7.00;4.10;;;26.50;99.90;;;;;;4870650;29;20487;-66
2023/08/25 16:31:57;;;;;;;3.93;3.63;;;26.50;99.90;;;;;;4867207;29;20471;-65
2023/08/25 16:34:24;;;;;;;3.90;3.50;;;26.60;99.90;;;;;;4867284;29;20515;-66
2023/08/25 16:36:50;;;;;;;4.07;3.67;;;26.60;99.90;;;;;;4870184;29;20463;-67
2023/08/25 16:39:17;;;;;;;4.00;3.70;;;26.60;99.90;;;;;;4870009;29;20488;-67
2023/08/25 16:41:44;;;;;;;4.20;3.90;;;26.50;99.90;;;;;;4866691;29;20501;-67
2023/08/25 16:44:10;;;;;;;4.10;3.70;;;26.50;99.90;;;;;;4867887;29;20468;-67
2023/08/25 16:46:38;;;;;;;4.43;3.90;;;26.30;99.90;;;;;;4870087;29;20634;-66
2023/08/25 16:49:05;;;;;;;4.10;3.80;;;26.20;99.90;;;;;;4873144;29;20488;-65
2023/08/25 16:51:33;;;;;;;4.07;3.67;;;26.20;99.90;;;;;;4897783;29;20859;-66
2023/08/25 16:53:59;;;;;;;3.63;3.27;;;26.20;99.90;;;;;;4899040;29;20505;-65
2023/08/25 16:56:26;;;;;;;3.90;3.50;;;26.30;99.90;;;;;;4885788;29;20531;-67
2023/08/25 16:58:56;;;;;;;3.70;3.40;;;26.20;99.90;;;;;;4884850;29;20493;-66
2023/08/25 17:01:22;;;;;;;3.80;3.40;;;26.00;99.90;;;;;;4894595;29;20502;-65
2023/08/25 17:03:50;;;;;;;4.37;2.80;;;25.90;99.90;;;;;;4890307;29;20845;-66
2023/08/25 17:06:17;;;;;;;3.33;3.03;;;25.80;99.90;;;;;;4896389;29;20494;-66
2023/08/25 17:08:44;;;;;;;4.00;3.50;;;25.80;99.90;;;;;;4895599;29;21250;-66
2023/08/25 17:11:11;;;;;;;3.13;2.93;;;25.70;99.90;;;;;;4896277;29;20462;-66
2023/08/25 17:13:37;;;;;;;3.80;3.13;;;25.70;99.90;;;;;;4896227;29;20489;-67
2023/08/25 17:16:09;;;;;;;2.87;2.67;;;25.60;99.90;;;;;;4895776;29;20478;-65
2023/08/25 17:18:36;;;;;;;6.60;3.10;;;25.50;99.90;;;;;;4896286;29;20487;-66
2023/08/25 17:21:04;;;;;;;3.50;2.70;;;25.40;99.90;;;;;;4896447;29;20465;-66
2023/08/25 17:23:32;;;;;;;3.43;3.20;;;25.40;99.90;;;;;;4895959;29;20477;-66
2023/08/25 17:25:59;;;;;;;5.47;2.73;;;25.20;99.90;;;;;;4896579;29;21021;-65
2023/08/25 17:28:27;;;;;;;3.80;3.40;;;25.10;99.90;;;;;;4895674;29;20574;-67
2023/08/25 17:31:04;;;;;;;3.17;2.87;;;25.10;99.90;;;;;;4896016;29;20474;-66
2023/08/25 17:33:31;;;;;;;2.77;2.57;;;25.00;99.90;;;;;;4896053;29;20965;-66
2023/08/25 17:36:05;;;;;;;3.70;3.10;;;25.00;99.90;;;;;;4896511;29;20454;-66
2023/08/25 17:38:32;;;;;;;3.40;3.10;;;24.90;99.90;;;;;;4883786;29;20482;-65
2023/08/25 17:41:06;;;;;;;3.50;3.20;;;24.80;99.90;;;;;;4871878;29;20463;-65
2023/08/25 17:43:33;;;;;;;4.33;3.33;;;24.70;99.90;;;;;;4887402;29;20545;-66
2023/08/25 17:46:00;;;;;;;3.50;3.20;;;24.60;99.90;;;;;;4895999;29;20501;-65
2023/08/25 17:48:27;;;;;;;3.60;2.70;;;24.60;99.90;;;;;;4896044;29;21073;-66
2023/08/25 17:50:54;;;;;;;3.20;2.90;;;24.50;99.90;;;;;;4896595;29;20510;-65
2023/08/25 17:53:23;;;;;;;3.90;3.30;;;24.40;99.90;;;;;;4895646;29;20466;-65
2023/08/25 17:55:50;;;;;;;3.73;3.43;;;24.30;99.90;;;;;;4896340;29;20466;-67
2023/08/25 17:58:18;;;;;;;3.53;3.23;;;24.30;99.90;;;;;;4896570;29;20470;-66
2023/08/25 18:00:44;;;;;;;3.63;3.10;;;24.20;99.90;;;;;;4895834;29;20497;-65
2023/08/25 18:03:12;;;;;;;5.40;3.33;;;24.10;99.90;;;;;;4892053;29;20471;-66
2023/08/25 18:05:40;;;;;;;3.93;3.20;;;24.00;99.90;;;;;;4892822;29;22487;-65
2023/08/25 18:08:07;;;;;;;3.50;3.20;;;24.00;99.90;;;;;;4879406;29;20463;-67
2023/08/25 18:10:37;;;;;;;4.03;3.10;;;23.90;99.90;;;;;;4873856;29;20484;-66
2023/08/25 18:13:04;;;;;;;3.10;2.90;;;23.90;99.90;;;;;;4866701;29;20462;-66
2023/08/25 18:15:31;;;;;;;4.73;3.63;;;23.80;99.90;;;;;;4858562;29;20484;-65
2023/08/25 18:17:58;;;;;;;3.40;3.10;;;23.70;99.90;;;;;;4867269;29;20505;-66
2023/08/25 18:20:25;;;;;;;3.37;3.07;;;23.60;99.90;;;;;;4872400;29;20568;-66
2023/08/25 18:22:52;;;;;;;4.47;3.00;;;23.50;99.90;;;;;;4873515;29;21031;-67
2023/08/25 18:25:19;;;;;;;5.43;3.00;;;23.40;99.90;;;;;;4881432;29;20970;-65
2023/08/25 18:27:47;;;;;;;4.23;2.97;;;23.40;99.90;;;;;;4877889;29;21014;-66
2023/08/25 18:30:19;;;;;;;3.43;3.10;;;23.30;99.90;;;;;;4871549;29;20485;-66
2023/08/25 18:32:46;;;;;;;4.37;3.60;;;23.20;99.90;;;;;;4869674;29;20478;-66
2023/08/25 18:35:13;;;;;;;3.20;2.90;;;23.10;99.90;;;;;;4893564;29;20463;-66
2023/08/25 18:37:42;;;;;;;4.03;3.70;;;23.00;99.90;;;;;;4883466;29;20460;-66
2023/08/25 18:40:10;;;;;;;4.60;3.40;;;22.90;99.90;;;;;;4867039;29;20839;-65
2023/08/25 18:42:37;;;;;;;5.33;4.07;;;22.80;99.90;;;;;;4882463;29;20467;-66
2023/08/25 18:45:06;;;;;;;4.73;3.50;;;22.70;99.90;;;;;;4866872;29;20467;-67
2023/08/25 18:47:33;;;;;;;3.47;3.17;;;22.70;99.90;;;;;;4890139;29;20486;-65
2023/08/25 18:50:00;;;;;;;3.60;3.30;;;22.60;99.90;;;;;;4892076;29;20518;-66
2023/08/25 18:52:26;;;;;;;4.27;3.87;;;22.50;99.90;;;;;;4891789;29;20470;-66
2023/08/25 18:54:53;;;;;;;4.00;3.60;;;22.60;99.90;;;;;;4892197;29;20466;-66
2023/08/25 18:57:25;;;;;;;3.80;3.50;;;22.60;99.90;;;;;;4891406;29;20475;-66
2023/08/25 18:59:52;;;;;;;3.73;3.43;;;22.50;99.90;;;;;;4855571;29;20491;-65
2023/08/25 19:02:20;;;;;;;3.43;3.10;;;22.40;99.90;;;;;;4855531;29;20509;-66
2023/08/25 19:04:46;;;;;;;3.80;3.50;;;22.40;99.90;;;;;;4866020;29;20478;-66
2023/08/25 19:07:13;;;;;;;3.90;3.17;;;22.30;99.90;;;;;;4880192;29;21253;-66
2023/08/25 19:09:42;;;;;;;3.43;3.13;;;22.20;99.90;;;;;;4892463;29;20490;-66
2023/08/25 19:12:08;;;;;;;3.60;3.30;;;22.20;99.90;;;;;;4891943;29;20483;-66
2023/08/25 19:14:35;;;;;;;3.87;3.57;;;22.10;99.90;;;;;;4876477;29;20482;-66
2023/08/25 19:17:02;;;;;;;3.70;3.40;;;22.10;99.90;;;;;;4866829;29;20484;-65
2023/08/25 19:19:30;;;;;;;3.70;3.40;;;22.00;99.90;;;;;;4864389;29;21102;-66
2023/08/25 19:21:57;;;;;;;4.00;3.60;;;22.00;99.90;;;;;;4866971;29;20482;-65
2023/08/25 19:24:25;;;;;;;3.70;3.33;;;21.90;99.90;;;;;;4872306;29;20484;-66
2023/08/25 19:26:51;;;;;;;5.20;3.33;;;21.80;99.90;;;;;;4862798;29;20499;-66
2023/08/25 19:29:18;;;;;;;3.93;3.63;;;21.70;99.90;;;;;;4862812;29;20488;-65
2023/08/25 19:31:45;;;;;;;4.83;3.63;;;21.70;99.90;;;;;;4864854;29;20860;-66
2023/08/25 19:34:11;;;;;;;4.20;3.80;;;21.70;99.90;;;;;;4878932;29;20591;-65
2023/08/25 19:36:40;;;;;;;4.83;3.90;;;21.70;99.90;;;;;;4865568;29;20473;-67
2023/08/25 19:39:07;;;;;;;3.57;3.27;;;21.70;99.90;;;;;;4863015;29;20585;-66
2023/08/25 19:41:34;;;;;;;3.03;2.80;;;21.70;99.90;;;;;;4863884;29;20482;-66
2023/08/25 19:44:02;;;;;;;3.73;3.43;;;21.60;99.90;;;;;;4878616;29;20476;-66
2023/08/25 19:46:29;;;;;;;4.90;4.17;;;21.60;99.90;;;;;;4870258;29;20501;-65
2023/08/25 19:48:57;;;;;;;3.90;3.60;;;21.60;99.90;;;;;;4862806;29;20496;-66
2023/08/25 19:51:24;;;;;;;4.90;4.27;;;21.60;99.90;;;;;;4863186;29;20480;-66
2023/08/25 19:53:52;;;;;;;4.43;4.03;;;21.60;99.90;;;;;;4868232;29;20476;-66
2023/08/25 19:56:19;;;;;;;3.90;3.60;;;21.60;99.90;;;;;;4865096;29;20484;-66
2023/08/25 19:58:49;;;;;;;4.57;4.10;;;21.60;99.90;;;;;;4866257;29;20491;-66
2023/08/25 20:01:17;;;;;;;3.97;3.60;;;21.60;99.90;;;;;;4863912;29;20481;-65
2023/08/25 20:03:43;;;;;;;3.80;3.50;;;21.50;99.90;;;;;;4876259;29;20508;-66
2023/08/25 20:06:10;;;;;;;4.13;3.53;;;21.50;99.90;;;;;;4866772;29;20472;-66
2023/08/25 20:08:37;;;;;;;3.93;3.60;;;21.50;99.90;;;;;;4865754;29;20492;-66
2023/08/25 20:11:05;;;;;;;3.77;3.40;;;21.50;99.90;;;;;;4863653;29;20476;-66
2023/08/25 20:13:33;;;;;;;3.60;3.20;;;21.40;99.90;;;;;;4873940;29;20470;-67
2023/08/25 20:16:02;;;;;;;4.23;3.83;;;21.40;99.90;;;;;;4867092;29;20500;-66
2023/08/25 20:18:29;;;;;;;4.00;3.60;;;21.30;99.90;;;;;;4867089;29;20525;-67
2023/08/25 20:20:56;;;;;;;3.93;3.57;;;21.30;99.90;;;;;;4858331;29;20467;-66
2023/08/25 20:23:22;;;;;;;4.60;3.80;;;21.30;99.90;;;;;;4870289;29;20982;-66
2023/08/25 20:25:49;;;;;;;4.90;3.83;;;21.30;99.90;;;;;;4856832;29;20482;-65
2023/08/25 20:28:17;;;;;;;3.70;3.30;;;21.30;99.90;;;;;;4861443;29;20488;-66
2023/08/25 20:30:46;;;;;;;7.63;3.80;;;21.30;99.90;;;;;;4863239;29;20491;-67
2023/08/25 20:33:13;;;;;;;4.10;3.70;;;21.40;99.90;;;;;;4866776;29;21101;-66
2023/08/25 20:35:40;;;;;;;4.10;3.70;;;21.40;99.90;;;;;;4866074;29;20515;-65
2023/08/25 20:38:07;;;;;;;3.77;3.33;;;21.40;99.90;;;;;;4869571;29;20547;-66
2023/08/25 20:40:35;;;;;;;4.47;4.07;;;21.30;99.90;;;;;;4867544;29;20485;-66
2023/08/25 20:43:02;;;;;;;4.30;3.90;;;21.40;99.90;;;;;;4862876;29;20479;-66
2023/08/25 20:45:30;;;;;;;5.10;3.90;;;21.40;99.90;;;;;;4863749;29;20863;-65
2023/08/25 20:47:57;;;;;;;4.23;3.90;;;21.40;99.90;;;;;;4862604;29;20491;-66
2023/08/25 20:50:24;;;;;;;3.90;3.60;;;21.30;99.90;;;;;;4869710;29;20855;-66
2023/08/25 20:52:50;;;;;;;4.47;3.70;;;21.30;99.90;;;;;;4854056;29;20466;-66
2023/08/25 20:55:17;;;;;;;5.20;4.30;;;21.30;99.90;;;;;;4862902;29;20482;-66
2023/08/25 20:57:44;;;;;;;5.00;3.80;;;21.30;99.90;;;;;;4862437;29;20472;-66
2023/08/25 21:00:12;;;;;;;3.50;3.20;;;21.30;99.90;;;;;;4869949;29;20488;-66
2023/08/25 21:02:45;;;;;;;4.10;3.70;;;21.30;99.90;;;;;;4860252;29;20481;-67
2023/08/25 21:05:12;;;;;;;3.47;3.17;;;21.20;99.90;;;;;;4864092;29;20511;-67
2023/08/25 21:07:38;;;;;;;6.07;4.23;;;21.30;99.90;;;;;;4854040;29;20501;-67
2023/08/25 21:10:06;;;;;;;4.00;3.60;;;21.20;99.90;;;;;;4863415;29;20500;-67
2023/08/25 21:12:33;;;;;;;4.60;4.20;;;21.30;99.90;;;;;;4870390;29;21004;-66
2023/08/25 21:15:00;;;;;;;4.73;4.33;;;21.30;99.90;;;;;;4863296;29;20515;-66
2023/08/25 21:17:26;;;;;;;4.90;3.73;;;21.30;99.90;;;;;;4870551;29;20466;-66
2023/08/25 21:19:54;;;;;;;4.07;3.77;;;21.30;99.90;;;;;;4870496;29;20499;-66
2023/08/25 21:22:21;;;;;;;4.53;3.80;;;21.30;99.90;;;;;;4884207;29;21002;-67
2023/08/25 21:24:48;;;;;;;4.87;4.37;;;21.20;99.90;;;;;;4889770;29;20472;-67
2023/08/25 21:27:14;;;;;;;4.30;3.90;;;21.30;99.90;;;;;;4889968;29;20491;-65
2023/08/25 21:29:41;;;;;;;5.23;4.73;;;21.30;99.90;;;;;;4889678;29;20703;-66
2023/08/25 21:32:08;;;;;;;4.50;4.10;;;21.20;99.90;;;;;;4889579;29;20479;-66
2023/08/25 21:34:38;;;;;;;5.47;4.50;;;21.20;99.90;;;;;;4889449;29;20477;-65
2023/08/25 21:37:06;;;;;;;4.00;3.57;;;21.20;99.90;;;;;;4890617;29;20981;-65
2023/08/25 21:39:33;;;;;;;4.47;4.07;;;21.20;99.90;;;;;;4892975;29;20482;-66
2023/08/25 21:42:00;;;;;;;4.90;4.17;;;21.20;99.90;;;;;;4892400;29;20573;-66
2023/08/25 21:44:27;;;;;;;4.80;4.40;;;21.10;99.90;;;;;;4880176;29;20551;-66
2023/08/25 21:46:53;;;;;;;5.60;3.90;;;21.10;99.90;;;;;;4873144;29;20495;-67
2023/08/25 21:49:20;;;;;;;4.80;4.40;;;21.10;99.90;;;;;;4870496;29;20918;-67
2023/08/25 21:51:47;;;;;;;5.20;4.80;;;21.10;99.90;;;;;;4873741;29;20483;-67
2023/08/25 21:54:15;;;;;;;5.57;4.13;;;21.10;99.90;;;;;;4874663;29;20479;-66
2023/08/25 21:56:41;;;;;;;4.83;4.37;;;21.10;99.90;;;;;;4874122;29;20858;-67
2023/08/25 21:59:08;;;;;;;4.40;4.00;;;21.10;99.90;;;;;;4866117;29;20561;-67
2023/08/25 22:01:35;;;;;;;5.50;5.00;;;21.10;99.90;;;;;;4873651;29;20471;-67
2023/08/25 22:04:02;;;;;;;5.50;4.80;;;21.00;99.90;;;;;;4874909;29;20955;-66
2023/08/25 22:06:31;;;;;;;5.20;4.47;;;21.00;99.90;;;;;;4861306;29;20565;-66
2023/08/25 22:08:58;;;;;;;4.70;4.27;;;21.00;99.90;;;;;;4860711;29;21273;-66
2023/08/25 22:11:26;;;;;;;5.57;4.30;;;21.00;99.90;;;;;;4893864;29;20466;-67
2023/08/25 22:13:53;;;;;;;6.40;5.03;;;21.00;99.90;;;;;;4872910;29;20537;-66
2023/08/25 22:16:21;;;;;;;8.97;5.93;;;20.90;99.90;;;;;;4869414;29;20473;-66
2023/08/25 22:18:48;;;;;;;5.50;5.00;;;20.90;99.90;;;;;;4870998;29;20484;-66
2023/08/25 22:21:15;;;;;;;5.10;4.60;;;20.90;99.90;;;;;;4864810;29;20475;-65
2023/08/25 22:23:42;;;;;;;5.47;4.20;;;20.80;99.90;;;;;;4859350;29;20474;-66
2023/08/25 22:26:09;;;;;;;4.37;3.97;;;20.80;99.90;;;;;;5014168;23;20507;-66
2023/08/25 22:28:37;;;;;;;6.13;5.40;;;20.80;99.90;;;;;;4872892;29;20507;-66
2023/08/25 22:31:04;;;;;;;5.93;4.80;;;20.80;99.90;;;;;;4858429;29;20469;-66
2023/08/25 22:33:30;;;;;;;5.23;4.70;;;20.80;99.90;;;;;;4865876;29;20464;-67
2023/08/25 22:35:57;;;;;;;4.90;4.50;;;20.80;99.90;;;;;;4878084;29;20873;-66
2023/08/25 22:38:24;;;;;;;5.90;4.60;;;20.80;99.90;;;;;;4878413;29;20464;-67
2023/08/25 22:40:53;;;;;;;4.97;4.47;;;20.80;99.90;;;;;;4878314;29;20482;-67
2023/08/25 22:43:19;;;;;;;4.70;4.30;;;20.80;99.90;;;;;;4878748;29;21199;-67
2023/08/25 22:45:47;;;;;;;4.77;4.30;;;20.70;99.90;;;;;;4878336;29;20464;-66
2023/08/25 22:48:16;;;;;;;4.43;4.00;;;20.80;99.90;;;;;;4877963;29;20488;-66
2023/08/25 22:50:42;;;;;;;4.80;4.40;;;20.70;99.90;;;;;;4878213;29;20558;-66
2023/08/25 22:53:09;;;;;;;4.93;4.50;;;20.70;99.90;;;;;;4877945;29;20464;-66
2023/08/25 22:55:36;;;;;;;4.00;3.60;;;20.70;99.90;;;;;;4871818;29;20851;-66
2023/08/25 22:58:02;;;;;;;4.37;3.97;;;20.60;99.90;;;;;;4861986;29;20851;-66
2023/08/25 23:00:29;;;;;;;4.60;4.20;;;20.60;99.90;;;;;;4864936;29;20472;-66
2023/08/25 23:02:57;;;;;;;4.47;4.10;;;20.50;99.90;;;;;;4860098;29;20465;-66
2023/08/25 23:07:52;;;;;;;4.97;4.47;;;20.50;99.90;;;;;;4876530;29;21135;-66
2023/08/25 23:10:19;;;;;;;5.20;4.13;;;20.50;99.90;;;;;;4878128;29;21165;-66
2023/08/25 23:12:45;;;;;;;4.33;3.80;;;20.40;99.90;;;;;;4877769;29;20818;-66
2023/08/25 23:15:12;;;;;;;6.80;4.23;;;20.30;99.90;;;;;;4878016;29;20467;-66
2023/08/25 23:17:39;;;;;;;4.20;3.43;;;20.20;99.90;;;;;;4877561;29;20818;-66
2023/08/25 23:20:08;;;;;;;3.73;3.33;;;20.10;99.90;;;;;;4877721;29;20480;-66
2023/08/25 23:22:35;;;;;;;6.70;4.33;;;20.00;99.90;;;;;;4877461;29;20909;-66
2023/08/25 23:25:02;;;;;;;3.40;3.07;;;19.90;99.90;;;;;;4877740;29;20570;-66
2023/08/25 23:27:29;;;;;;;3.70;3.30;;;19.90;99.90;;;;;;4877372;29;20503;-66
2023/08/25 23:29:57;;;;;;;4.50;3.73;;;19.80;99.90;;;;;;4877409;29;20860;-66
2023/08/25 23:32:23;;;;;;;4.43;4.03;;;19.80;99.90;;;;;;4877534;29;20468;-66
2023/08/25 23:34:50;;;;;;;4.80;3.87;;;19.80;99.90;;;;;;4877575;29;20672;-66
2023/08/25 23:37:18;;;;;;;3.93;3.20;;;19.80;99.90;;;;;;4877421;29;20471;-66
2023/08/25 23:39:45;;;;;;;4.60;4.20;;;19.80;99.90;;;;;;4877423;29;20494;-66